sensor_id;sensor_type;location;lat;lon;timestamp;pressure;altitude;pressure_sealevel;temperature;humidity
16738;BME280;17906;47.684;10.806;2023-05-13T00:00:13;92999.19;;;7.07;100.00
16738;BME280;17906;47.684;10.806;2023-05-13T00:02:39;93004.59;;;7.07;100.00
16738;BME280;17906;47.684;10.806;2023-05-13T00:05:08;93002.81;;;7.00;100.00
16738;BME280;17906;47.684;10.806;2023-05-13T00:07:34;93002.94;;;7.06;100.00
16738;BME280;17906;47.684;10.806;2023-05-13T00:10:01;93008.69;;;6.97;100.00
16738;BME280;17906;47.684;10.806;2023-05-13T00:12:28;93007.50;;;6.93;100.00
16738;BME280;17906;47.684;10.806;2023-05-13T00:14:55;93008.50;;;6.81;100.00
16738;BME280;17906;47.684;10.806;2023-05-13T00:17:21;93009.53;;;6.68;100.00
16738;BME280;17906;47.684;10.806;2023-05-13T00:19:48;93001.22;;;6.69;100.00
16738;BME280;17906;47.684;10.806;2023-05-13T00:22:16;92998.34;;;6.71;100.00
16738;BME280;17906;47.684;10.806;2023-05-13T00:24:43;93004.19;;;6.80;100.00
16738;BME280;17906;47.684;10.806;2023-05-13T00:27:09;93001.97;;;6.77;100.00
16738;BME280;17906;47.684;10.806;2023-05-13T00:29:36;93001.03;;;6.71;100.00
16738;BME280;17906;47.684;10.806;2023-05-13T00:32:03;93007.09;;;6.78;100.00
16738;BME280;17906;47.684;10.806;2023-05-13T00:34:30;93005.00;;;6.80;100.00
16738;BME280;17906;47.684;10.806;2023-05-13T00:36:56;92997.97;;;6.79;100.00
16738;BME280;17906;47.684;10.806;2023-05-13T00:39:25;93008.63;;;6.74;100.00
16738;BME280;17906;47.684;10.806;2023-05-13T00:41:53;93007.59;;;6.75;100.00
16738;BME280;17906;47.684;10.806;2023-05-13T00:44:19;93009.31;;;6.69;100.00
16738;BME280;17906;47.684;10.806;2023-05-13T00:46:46;93009.19;;;6.64;100.00
16738;BME280;17906;47.684;10.806;2023-05-13T00:49:13;93003.09;;;6.69;100.00
16738;BME280;17906;47.684;10.806;2023-05-13T00:51:39;93011.31;;;6.62;100.00
16738;BME280;17906;47.684;10.806;2023-05-13T00:54:06;93010.47;;;6.62;100.00
16738;BME280;17906;47.684;10.806;2023-05-13T00:56:36;93015.88;;;6.62;100.00
16738;BME280;17906;47.684;10.806;2023-05-13T00:59:02;93004.00;;;6.51;100.00
16738;BME280;17906;47.684;10.806;2023-05-13T01:01:33;93011.25;;;6.51;100.00
16738;BME280;17906;47.684;10.806;2023-05-13T01:04:12;93018.38;;;6.45;100.00
16738;BME280;17906;47.684;10.806;2023-05-13T01:06:46;93008.66;;;6.44;100.00
16738;BME280;17906;47.684;10.806;2023-05-13T01:09:20;93020.78;;;6.35;100.00
16738;BME280;17906;47.684;10.806;2023-05-13T01:11:52;93019.16;;;6.34;100.00
16738;BME280;17906;47.684;10.806;2023-05-13T01:14:24;93019.63;;;6.31;100.00
16738;BME280;17906;47.684;10.806;2023-05-13T01:17:02;93015.06;;;6.31;100.00
16738;BME280;17906;47.684;10.806;2023-05-13T01:19:38;93015.88;;;6.32;100.00
16738;BME280;17906;47.684;10.806;2023-05-13T01:22:08;93016.22;;;6.35;100.00
16738;BME280;17906;47.684;10.806;2023-05-13T01:24:35;93019.50;;;6.37;100.00
16738;BME280;17906;47.684;10.806;2023-05-13T01:27:01;93023.88;;;6.38;100.00
16738;BME280;17906;47.684;10.806;2023-05-13T01:29:28;93023.03;;;6.38;100.00
16738;BME280;17906;47.684;10.806;2023-05-13T01:31:56;93026.69;;;6.44;100.00
16738;BME280;17906;47.684;10.806;2023-05-13T01:34:24;93022.03;;;6.51;100.00
16738;BME280;17906;47.684;10.806;2023-05-13T01:36:52;93021.66;;;6.47;100.00
16738;BME280;17906;47.684;10.806;2023-05-13T01:39:21;93011.84;;;6.53;100.00
16738;BME280;17906;47.684;10.806;2023-05-13T01:41:49;93017.94;;;6.60;100.00
16738;BME280;17906;47.684;10.806;2023-05-13T01:44:15;93022.63;;;6.53;100.00
16738;BME280;17906;47.684;10.806;2023-05-13T01:46:42;93015.03;;;6.61;100.00
16738;BME280;17906;47.684;10.806;2023-05-13T01:49:09;93017.34;;;6.58;100.00
16738;BME280;17906;47.684;10.806;2023-05-13T01:51:35;93021.56;;;6.54;100.00
16738;BME280;17906;47.684;10.806;2023-05-13T01:54:03;93020.59;;;6.48;100.00
16738;BME280;17906;47.684;10.806;2023-05-13T01:56:31;93012.16;;;6.45;100.00
16738;BME280;17906;47.684;10.806;2023-05-13T01:58:57;93021.56;;;6.54;100.00
16738;BME280;17906;47.684;10.806;2023-05-13T02:01:24;93017.09;;;6.48;100.00
16738;BME280;17906;47.684;10.806;2023-05-13T02:03:51;93022.63;;;6.53;100.00
16738;BME280;17906;47.684;10.806;2023-05-13T02:06:18;93025.16;;;6.48;100.00
16738;BME280;17906;47.684;10.806;2023-05-13T02:08:44;93018.03;;;6.41;100.00
16738;BME280;17906;47.684;10.806;2023-05-13T02:11:11;93014.53;;;6.53;100.00
16738;BME280;17906;47.684;10.806;2023-05-13T02:13:39;93024.81;;;6.44;100.00
16738;BME280;17906;47.684;10.806;2023-05-13T02:16:05;93018.28;;;6.52;100.00
16738;BME280;17906;47.684;10.806;2023-05-13T02:18:32;93022.47;;;6.48;100.00
16738;BME280;17906;47.684;10.806;2023-05-13T02:20:58;93017.00;;;6.54;100.00
16738;BME280;17906;47.684;10.806;2023-05-13T02:23:25;93015.47;;;6.58;100.00
16738;BME280;17906;47.684;10.806;2023-05-13T02:25:52;93022.63;;;6.53;100.00
16738;BME280;17906;47.684;10.806;2023-05-13T02:28:18;93014.41;;;6.48;100.00
16738;BME280;17906;47.684;10.806;2023-05-13T02:30:46;93022.34;;;6.43;100.00
16738;BME280;17906;47.684;10.806;2023-05-13T02:33:13;93016.81;;;6.37;100.00
16738;BME280;17906;47.684;10.806;2023-05-13T02:35:39;93024.19;;;6.30;100.00
16738;BME280;17906;47.684;10.806;2023-05-13T02:38:08;93023.78;;;6.27;100.00
16738;BME280;17906;47.684;10.806;2023-05-13T02:40:34;93017.75;;;6.31;100.00
16738;BME280;17906;47.684;10.806;2023-05-13T02:43:01;93026.72;;;6.25;100.00
16738;BME280;17906;47.684;10.806;2023-05-13T02:45:28;93020.50;;;6.25;100.00
16738;BME280;17906;47.684;10.806;2023-05-13T02:47:56;93026.47;;;6.27;100.00
16738;BME280;17906;47.684;10.806;2023-05-13T02:50:22;93040.75;;;6.27;100.00
16738;BME280;17906;47.684;10.806;2023-05-13T02:52:49;93029.28;;;6.20;100.00
16738;BME280;17906;47.684;10.806;2023-05-13T02:55:16;93028.47;;;6.20;100.00
16738;BME280;17906;47.684;10.806;2023-05-13T02:57:42;93033.91;;;6.13;100.00
16738;BME280;17906;47.684;10.806;2023-05-13T03:00:10;93035.56;;;6.14;100.00
16738;BME280;17906;47.684;10.806;2023-05-13T03:02:36;93029.34;;;6.13;100.00
16738;BME280;17906;47.684;10.806;2023-05-13T03:05:05;93035.19;;;6.10;100.00
16738;BME280;17906;47.684;10.806;2023-05-13T03:07:33;93042.69;;;6.08;100.00
16738;BME280;17906;47.684;10.806;2023-05-13T03:09:59;93037.28;;;6.08;100.00
16738;BME280;17906;47.684;10.806;2023-05-13T03:12:26;93029.13;;;5.97;100.00
16738;BME280;17906;47.684;10.806;2023-05-13T03:14:52;93035.41;;;5.91;100.00
16738;BME280;17906;47.684;10.806;2023-05-13T03:17:19;93037.25;;;5.90;100.00
16738;BME280;17906;47.684;10.806;2023-05-13T03:19:45;93032.41;;;5.80;100.00
16738;BME280;17906;47.684;10.806;2023-05-13T03:22:13;93042.94;;;5.82;100.00
16738;BME280;17906;47.684;10.806;2023-05-13T03:24:40;93037.78;;;5.80;100.00
16738;BME280;17906;47.684;10.806;2023-05-13T03:27:07;93040.13;;;5.77;100.00
16738;BME280;17906;47.684;10.806;2023-05-13T03:29:34;93043.47;;;5.72;100.00
16738;BME280;17906;47.684;10.806;2023-05-13T03:32:00;93044.28;;;5.73;100.00
16738;BME280;17906;47.684;10.806;2023-05-13T03:34:27;93042.56;;;5.78;100.00
16738;BME280;17906;47.684;10.806;2023-05-13T03:36:53;93038.47;;;5.76;100.00
16738;BME280;17906;47.684;10.806;2023-05-13T03:39:21;93035.09;;;5.80;100.00
16738;BME280;17906;47.684;10.806;2023-05-13T03:41:47;93042.13;;;5.81;100.00
16738;BME280;17906;47.684;10.806;2023-05-13T03:44:14;93049.22;;;5.76;100.00
16738;BME280;17906;47.684;10.806;2023-05-13T03:46:41;93047.97;;;5.78;100.00
16738;BME280;17906;47.684;10.806;2023-05-13T03:49:07;93048.41;;;5.75;100.00
16738;BME280;17906;47.684;10.806;2023-05-13T03:51:34;93045.03;;;5.80;100.00
16738;BME280;17906;47.684;10.806;2023-05-13T03:54:00;93047.06;;;5.84;100.00
16738;BME280;17906;47.684;10.806;2023-05-13T03:56:28;93052.88;;;5.81;100.00
16738;BME280;17906;47.684;10.806;2023-05-13T03:58:55;93058.25;;;5.81;100.00
16738;BME280;17906;47.684;10.806;2023-05-13T04:01:22;93061.19;;;5.80;100.00
16738;BME280;17906;47.684;10.806;2023-05-13T04:03:48;93054.31;;;5.84;100.00
16738;BME280;17906;47.684;10.806;2023-05-13T04:06:15;93066.50;;;5.87;100.00
16738;BME280;17906;47.684;10.806;2023-05-13T04:08:42;93056.63;;;5.80;100.00
16738;BME280;17906;47.684;10.806;2023-05-13T04:11:08;93066.72;;;5.85;100.00
16738;BME280;17906;47.684;10.806;2023-05-13T04:13:36;93057.84;;;5.84;100.00
16738;BME280;17906;47.684;10.806;2023-05-13T04:16:03;93056.91;;;5.91;100.00
16738;BME280;17906;47.684;10.806;2023-05-13T04:18:32;93063.47;;;5.95;100.00
16738;BME280;17906;47.684;10.806;2023-05-13T04:20:58;93063.06;;;5.98;100.00
16738;BME280;17906;47.684;10.806;2023-05-13T04:23:25;93067.75;;;6.02;100.00
16738;BME280;17906;47.684;10.806;2023-05-13T04:25:52;93073.81;;;5.98;100.00
16738;BME280;17906;47.684;10.806;2023-05-13T04:28:18;93067.44;;;5.92;100.00
16738;BME280;17906;47.684;10.806;2023-05-13T04:30:46;93065.34;;;5.94;100.00
16738;BME280;17906;47.684;10.806;2023-05-13T04:33:13;93073.00;;;5.97;100.00
16738;BME280;17906;47.684;10.806;2023-05-13T04:35:39;93079.97;;;6.05;100.00
16738;BME280;17906;47.684;10.806;2023-05-13T04:38:06;93067.84;;;5.96;100.00
16738;BME280;17906;47.684;10.806;2023-05-13T04:40:33;93078.16;;;5.99;100.00
16738;BME280;17906;47.684;10.806;2023-05-13T04:43:00;93076.06;;;6.01;100.00
16738;BME280;17906;47.684;10.806;2023-05-13T04:45:26;93070.00;;;6.05;100.00
16738;BME280;17906;47.684;10.806;2023-05-13T04:47:54;93080.34;;;6.08;100.00
16738;BME280;17906;47.684;10.806;2023-05-13T04:50:21;93078.63;;;6.14;100.00
16738;BME280;17906;47.684;10.806;2023-05-13T04:52:48;93083.63;;;6.10;100.00
16738;BME280;17906;47.684;10.806;2023-05-13T04:55:14;93075.78;;;6.09;100.00
16738;BME280;17906;47.684;10.806;2023-05-13T04:57:41;93079.44;;;6.15;100.00
16738;BME280;17906;47.684;10.806;2023-05-13T05:00:08;93084.81;;;6.15;100.00
16738;BME280;17906;47.684;10.806;2023-05-13T05:02:35;93084.75;;;6.21;100.00
16738;BME280;17906;47.684;10.806;2023-05-13T05:05:03;93088.56;;;6.13;100.00
16738;BME280;17906;47.684;10.806;2023-05-13T05:07:30;93087.75;;;6.13;100.00
16738;BME280;17906;47.684;10.806;2023-05-13T05:09:56;93099.09;;;6.15;100.00
16738;BME280;17906;47.684;10.806;2023-05-13T05:12:23;93096.19;;;6.17;100.00
16738;BME280;17906;47.684;10.806;2023-05-13T05:14:50;93097.22;;;6.16;100.00
16738;BME280;17906;47.684;10.806;2023-05-13T05:17:16;93095.22;;;6.29;100.00
16738;BME280;17906;47.684;10.806;2023-05-13T05:19:43;93093.88;;;6.20;100.00
16738;BME280;17906;47.684;10.806;2023-05-13T05:22:11;93097.22;;;6.16;100.00
16738;BME280;17906;47.684;10.806;2023-05-13T05:24:37;93100.59;;;6.11;100.00
16738;BME280;17906;47.684;10.806;2023-05-13T05:27:04;93099.72;;;6.17;100.00
16738;BME280;17906;47.684;10.806;2023-05-13T05:29:31;93103.13;;;6.24;100.00
16738;BME280;17906;47.684;10.806;2023-05-13T05:31:57;93100.53;;;6.18;100.00
16738;BME280;17906;47.684;10.806;2023-05-13T05:34:24;93112.50;;;6.22;100.00
16738;BME280;17906;47.684;10.806;2023-05-13T05:36:51;93104.34;;;6.28;100.00
16738;BME280;17906;47.684;10.806;2023-05-13T05:39:20;93106.81;;;6.30;100.00
16738;BME280;17906;47.684;10.806;2023-05-13T05:41:47;93108.44;;;6.31;100.00
16738;BME280;17906;47.684;10.806;2023-05-13T05:44:13;93107.34;;;6.38;100.00
16738;BME280;17906;47.684;10.806;2023-05-13T05:46:40;93109.84;;;6.33;100.00
16738;BME280;17906;47.684;10.806;2023-05-13T05:49:07;93107.41;;;6.32;100.00
16738;BME280;17906;47.684;10.806;2023-05-13T05:51:33;93115.00;;;6.35;100.00
16738;BME280;17906;47.684;10.806;2023-05-13T05:54:00;93108.34;;;6.37;100.00
16738;BME280;17906;47.684;10.806;2023-05-13T05:56:29;93105.88;;;6.36;100.00
16738;BME280;17906;47.684;10.806;2023-05-13T05:58:55;93110.63;;;6.40;100.00
16738;BME280;17906;47.684;10.806;2023-05-13T06:01:21;93120.91;;;6.44;100.00
16738;BME280;17906;47.684;10.806;2023-05-13T06:03:48;93120.09;;;6.43;100.00
16738;BME280;17906;47.684;10.806;2023-05-13T06:06:15;93122.56;;;6.45;100.00
16738;BME280;17906;47.684;10.806;2023-05-13T06:08:41;93117.53;;;6.48;100.00
16738;BME280;17906;47.684;10.806;2023-05-13T06:11:08;93124.19;;;6.46;100.00
16738;BME280;17906;47.684;10.806;2023-05-13T06:13:36;93117.63;;;6.41;100.00
16738;BME280;17906;47.684;10.806;2023-05-13T06:16:03;93119.94;;;6.38;100.00
16738;BME280;17906;47.684;10.806;2023-05-13T06:18:29;93119.22;;;6.49;100.00
16738;BME280;17906;47.684;10.806;2023-05-13T06:20:56;93116.59;;;6.43;100.00
16738;BME280;17906;47.684;10.806;2023-05-13T06:23:22;93127.34;;;6.43;100.00
16738;BME280;17906;47.684;10.806;2023-05-13T06:25:49;93133.50;;;6.31;100.00
16738;BME280;17906;47.684;10.806;2023-05-13T06:28:16;93126.25;;;6.32;100.00
16738;BME280;17906;47.684;10.806;2023-05-13T06:30:44;93129.75;;;6.32;100.00
16738;BME280;17906;47.684;10.806;2023-05-13T06:33:10;93129.75;;;6.32;100.00
16738;BME280;17906;47.684;10.806;2023-05-13T06:35:37;93133.84;;;6.35;100.00
16738;BME280;17906;47.684;10.806;2023-05-13T06:38:04;93125.47;;;6.43;100.00
16738;BME280;17906;47.684;10.806;2023-05-13T06:40:30;93128.69;;;6.33;100.00
16738;BME280;17906;47.684;10.806;2023-05-13T06:42:57;93128.41;;;6.41;100.00
16738;BME280;17906;47.684;10.806;2023-05-13T06:45:23;93129.59;;;6.46;100.00
16738;BME280;17906;47.684;10.806;2023-05-13T06:47:52;93128.09;;;6.50;100.00
16738;BME280;17906;47.684;10.806;2023-05-13T06:50:19;93125.25;;;6.45;100.00
16738;BME280;17906;47.684;10.806;2023-05-13T06:52:45;93131.69;;;6.44;100.00
16738;BME280;17906;47.684;10.806;2023-05-13T06:55:12;93136.38;;;6.48;100.00
16738;BME280;17906;47.684;10.806;2023-05-13T06:57:39;93133.25;;;6.51;100.00
16738;BME280;17906;47.684;10.806;2023-05-13T07:00:06;93133.75;;;6.60;100.00
16738;BME280;17906;47.684;10.806;2023-05-13T07:02:32;93132.09;;;6.59;100.00
16738;BME280;17906;47.684;10.806;2023-05-13T07:05:00;93129.41;;;6.59;100.00
16738;BME280;17906;47.684;10.806;2023-05-13T07:07:27;93142.06;;;6.58;100.00
16738;BME280;17906;47.684;10.806;2023-05-13T07:09:54;93148.66;;;6.44;100.00
16738;BME280;17906;47.684;10.806;2023-05-13T07:12:20;93148.50;;;6.57;100.00
16738;BME280;17906;47.684;10.806;2023-05-13T07:14:47;93142.28;;;6.57;100.00
16738;BME280;17906;47.684;10.806;2023-05-13T07:17:14;93139.53;;;6.63;100.00
16738;BME280;17906;47.684;10.806;2023-05-13T07:19:40;93142.00;;;6.65;100.00
16738;BME280;17906;47.684;10.806;2023-05-13T07:22:08;93144.22;;;6.68;100.00
16738;BME280;17906;47.684;10.806;2023-05-13T07:24:35;93152.00;;;6.76;100.00
16738;BME280;17906;47.684;10.806;2023-05-13T07:27:02;93151.88;;;6.71;100.00
16738;BME280;17906;47.684;10.806;2023-05-13T07:29:29;93150.66;;;6.67;100.00
16738;BME280;17906;47.684;10.806;2023-05-13T07:31:56;93151.19;;;6.76;100.00
16738;BME280;17906;47.684;10.806;2023-05-13T07:34:23;93147.78;;;6.80;100.00
16738;BME280;17906;47.684;10.806;2023-05-13T07:36:49;93145.72;;;6.82;100.00
16738;BME280;17906;47.684;10.806;2023-05-13T07:39:17;93153.22;;;6.92;100.00
16738;BME280;17906;47.684;10.806;2023-05-13T07:41:43;93151.34;;;6.92;100.00
16738;BME280;17906;47.684;10.806;2023-05-13T07:44:10;93151.75;;;6.96;100.00
16738;BME280;17906;47.684;10.806;2023-05-13T07:46:37;93147.63;;;6.93;100.00
16738;BME280;17906;47.684;10.806;2023-05-13T07:49:04;93147.91;;;7.04;100.00
16738;BME280;17906;47.684;10.806;2023-05-13T07:51:33;93141.59;;;7.10;100.00
16738;BME280;17906;47.684;10.806;2023-05-13T07:53:59;93149.16;;;7.01;100.00
16738;BME280;17906;47.684;10.806;2023-05-13T07:56:27;93144.50;;;7.08;100.00
16738;BME280;17906;47.684;10.806;2023-05-13T07:58:54;93148.16;;;7.14;100.00
16738;BME280;17906;47.684;10.806;2023-05-13T08:01:21;93155.75;;;7.05;100.00
16738;BME280;17906;47.684;10.806;2023-05-13T08:03:47;93151.91;;;7.13;100.00
16738;BME280;17906;47.684;10.806;2023-05-13T08:06:14;93161.63;;;7.14;100.00
16738;BME280;17906;47.684;10.806;2023-05-13T08:08:40;93155.69;;;7.23;100.00
16738;BME280;17906;47.684;10.806;2023-05-13T08:11:07;93155.22;;;7.15;100.00
16738;BME280;17906;47.684;10.806;2023-05-13T08:13:34;93153.81;;;7.24;100.00
16738;BME280;17906;47.684;10.806;2023-05-13T08:16:03;93149.88;;;7.38;100.00
16738;BME280;17906;47.684;10.806;2023-05-13T08:18:31;93154.53;;;7.31;100.00
16738;BME280;17906;47.684;10.806;2023-05-13T08:20:57;93144.50;;;7.38;100.00
16738;BME280;17906;47.684;10.806;2023-05-13T08:23:24;93151.63;;;7.44;100.00
16738;BME280;17906;47.684;10.806;2023-05-13T08:25:51;93147.91;;;7.57;100.00
16738;BME280;17906;47.684;10.806;2023-05-13T08:28:17;93147.81;;;7.64;100.00
16738;BME280;17906;47.684;10.806;2023-05-13T08:30:45;93150.50;;;7.75;100.00
16738;BME280;17906;47.684;10.806;2023-05-13T08:33:12;93154.41;;;7.91;100.00
16738;BME280;17906;47.684;10.806;2023-05-13T08:35:38;93150.75;;;7.85;100.00
16738;BME280;17906;47.684;10.806;2023-05-13T08:38:05;93159.72;;;7.98;100.00
16738;BME280;17906;47.684;10.806;2023-05-13T08:40:31;93149.50;;;8.00;100.00
16738;BME280;17906;47.684;10.806;2023-05-13T08:42:59;93153.47;;;7.85;100.00
16738;BME280;17906;47.684;10.806;2023-05-13T08:45:28;93156.09;;;7.92;100.00
16738;BME280;17906;47.684;10.806;2023-05-13T08:47:57;93153.81;;;7.89;100.00
16738;BME280;17906;47.684;10.806;2023-05-13T08:50:26;93152.75;;;7.90;100.00
16738;BME280;17906;47.684;10.806;2023-05-13T08:52:53;93154.69;;;8.13;100.00
16738;BME280;17906;47.684;10.806;2023-05-13T08:55:20;93156.19;;;8.21;100.00
16738;BME280;17906;47.684;10.806;2023-05-13T08:57:48;93167.13;;;8.26;100.00
16738;BME280;17906;47.684;10.806;2023-05-13T09:00:15;93156.06;;;8.39;100.00
16738;BME280;17906;47.684;10.806;2023-05-13T09:02:42;93158.41;;;8.47;100.00
16738;BME280;17906;47.684;10.806;2023-05-13T09:05:10;93162.59;;;8.55;100.00
16738;BME280;17906;47.684;10.806;2023-05-13T09:07:38;93170.81;;;8.60;100.00
16738;BME280;17906;47.684;10.806;2023-05-13T09:10:06;93163.41;;;8.55;100.00
16738;BME280;17906;47.684;10.806;2023-05-13T09:12:43;93159.69;;;8.56;100.00
16738;BME280;17906;47.684;10.806;2023-05-13T09:15:12;93170.84;;;8.48;100.00
16738;BME280;17906;47.684;10.806;2023-05-13T09:17:39;93168.00;;;8.43;100.00
16738;BME280;17906;47.684;10.806;2023-05-13T09:20:12;93176.25;;;8.48;100.00
16738;BME280;17906;47.684;10.806;2023-05-13T09:22:41;93168.63;;;8.45;100.00
16738;BME280;17906;47.684;10.806;2023-05-13T09:25:10;93166.69;;;8.69;100.00
16738;BME280;17906;47.684;10.806;2023-05-13T09:27:38;93165.03;;;8.80;100.00
16738;BME280;17906;47.684;10.806;2023-05-13T09:30:06;93165.50;;;8.65;100.00
16738;BME280;17906;47.684;10.806;2023-05-13T09:32:33;93167.41;;;8.64;100.00
16738;BME280;17906;47.684;10.806;2023-05-13T09:35:07;93164.84;;;8.58;100.00
16738;BME280;17906;47.684;10.806;2023-05-13T09:37:36;93168.25;;;8.53;100.00
16738;BME280;17906;47.684;10.806;2023-05-13T09:40:03;93175.88;;;8.56;100.00
16738;BME280;17906;47.684;10.806;2023-05-13T09:42:30;93170.69;;;8.55;100.00
16738;BME280;17906;47.684;10.806;2023-05-13T09:45:03;93171.78;;;8.30;100.00
16738;BME280;17906;47.684;10.806;2023-05-13T09:47:30;93169.69;;;8.21;100.00
16738;BME280;17906;47.684;10.806;2023-05-13T09:49:56;93173.94;;;8.17;100.00
16738;BME280;17906;47.684;10.806;2023-05-13T09:52:23;93181.78;;;8.06;100.00
16738;BME280;17906;47.684;10.806;2023-05-13T09:54:51;93182.75;;;8.12;100.00
16738;BME280;17906;47.684;10.806;2023-05-13T09:57:17;93177.78;;;8.09;100.00
16738;BME280;17906;47.684;10.806;2023-05-13T09:59:44;93183.56;;;8.12;100.00
16738;BME280;17906;47.684;10.806;2023-05-13T10:02:11;93184.81;;;8.22;100.00
16738;BME280;17906;47.684;10.806;2023-05-13T10:04:40;93173.34;;;8.26;100.00
16738;BME280;17906;47.684;10.806;2023-05-13T10:07:08;93175.56;;;8.18;100.00
16738;BME280;17906;47.684;10.806;2023-05-13T10:09:38;93172.50;;;8.26;100.00
16738;BME280;17906;47.684;10.806;2023-05-13T10:12:08;93182.59;;;8.30;100.00
16738;BME280;17906;47.684;10.806;2023-05-13T10:14:37;93186.69;;;8.33;100.00
16738;BME280;17906;47.684;10.806;2023-05-13T10:17:04;93187.19;;;8.30;100.00
16738;BME280;17906;47.684;10.806;2023-05-13T10:19:31;93185.78;;;8.39;100.00
16738;BME280;17906;47.684;10.806;2023-05-13T10:22:00;93195.75;;;8.38;100.00
16738;BME280;17906;47.684;10.806;2023-05-13T10:24:27;93196.09;;;8.42;100.00
16738;BME280;17906;47.684;10.806;2023-05-13T10:26:55;93191.66;;;8.36;100.00
16738;BME280;17906;47.684;10.806;2023-05-13T10:29:25;93196.91;;;8.31;100.00
16738;BME280;17906;47.684;10.806;2023-05-13T10:31:52;93200.19;;;8.33;100.00
16738;BME280;17906;47.684;10.806;2023-05-13T10:34:20;93198.56;;;8.32;100.00
16738;BME280;17906;47.684;10.806;2023-05-13T10:36:58;93189.28;;;8.39;100.00
16738;BME280;17906;47.684;10.806;2023-05-13T10:39:58;93194.81;;;8.44;100.00
16738;BME280;17906;47.684;10.806;2023-05-13T10:42:43;93186.91;;;8.55;100.00
16738;BME280;17906;47.684;10.806;2023-05-13T10:45:16;93189.13;;;8.69;100.00
16738;BME280;17906;47.684;10.806;2023-05-13T10:47:43;93189.22;;;8.74;100.00
16738;BME280;17906;47.684;10.806;2023-05-13T10:50:22;93190.44;;;8.67;100.00
16738;BME280;17906;47.684;10.806;2023-05-13T10:52:53;93194.88;;;8.73;100.00
16738;BME280;17906;47.684;10.806;2023-05-13T10:55:20;93196.88;;;8.66;100.00
16738;BME280;17906;47.684;10.806;2023-05-13T10:58:04;93194.53;;;8.69;100.00
16738;BME280;17906;47.684;10.806;2023-05-13T11:00:34;93201.13;;;8.50;100.00
16738;BME280;17906;47.684;10.806;2023-05-13T11:03:12;93199.03;;;8.52;100.00
16738;BME280;17906;47.684;10.806;2023-05-13T11:05:40;93197.50;;;8.56;100.00
16738;BME280;17906;47.684;10.806;2023-05-13T11:08:06;93201.84;;;8.69;100.00
16738;BME280;17906;47.684;10.806;2023-05-13T11:10:33;93206.50;;;8.73;100.00
16738;BME280;17906;47.684;10.806;2023-05-13T11:15:51;93209.00;;;8.63;100.00
16738;BME280;17906;47.684;10.806;2023-05-13T11:18:18;93207.28;;;8.34;100.00
16738;BME280;17906;47.684;10.806;2023-05-13T11:20:46;93208.53;;;8.43;100.00
16738;BME280;17906;47.684;10.806;2023-05-13T11:23:17;93208.78;;;8.30;100.00
16738;BME280;17906;47.684;10.806;2023-05-13T11:25:44;93196.22;;;8.35;100.00
16738;BME280;17906;47.684;10.806;2023-05-13T11:28:14;93205.00;;;8.42;100.00
16738;BME280;17906;47.684;10.806;2023-05-13T11:30:53;93212.78;;;8.39;100.00
16738;BME280;17906;47.684;10.806;2023-05-13T11:33:20;93203.72;;;8.33;100.00
16738;BME280;17906;47.684;10.806;2023-05-13T11:35:52;93202.81;;;8.28;100.00
16738;BME280;17906;47.684;10.806;2023-05-13T11:38:21;93212.44;;;8.24;100.00
16738;BME280;17906;47.684;10.806;2023-05-13T11:40:49;93206.44;;;8.22;100.00
16738;BME280;17906;47.684;10.806;2023-05-13T11:43:18;93214.19;;;8.18;100.00
16738;BME280;17906;47.684;10.806;2023-05-13T11:45:46;93212.66;;;8.10;100.00
16738;BME280;17906;47.684;10.806;2023-05-13T11:48:18;93215.47;;;8.15;100.00
16738;BME280;17906;47.684;10.806;2023-05-13T11:50:45;93221.13;;;8.26;100.00
16738;BME280;17906;47.684;10.806;2023-05-13T11:53:18;93212.19;;;8.37;100.00
16738;BME280;17906;47.684;10.806;2023-05-13T11:55:45;93212.19;;;8.25;100.00
16738;BME280;17906;47.684;10.806;2023-05-13T11:58:12;93217.13;;;8.28;100.00
16738;BME280;17906;47.684;10.806;2023-05-13T12:00:39;93214.09;;;8.36;100.00
16738;BME280;17906;47.684;10.806;2023-05-13T12:03:09;93219.25;;;8.38;100.00
16738;BME280;17906;47.684;10.806;2023-05-13T12:05:37;93214.66;;;8.50;100.00
16738;BME280;17906;47.684;10.806;2023-05-13T12:08:06;93226.63;;;8.42;100.00
16738;BME280;17906;47.684;10.806;2023-05-13T12:10:33;93211.22;;;8.55;100.00
16738;BME280;17906;47.684;10.806;2023-05-13T12:13:00;93214.88;;;8.60;100.00
16738;BME280;17906;47.684;10.806;2023-05-13T12:15:28;93217.47;;;8.67;100.00
16738;BME280;17906;47.684;10.806;2023-05-13T12:17:55;93223.56;;;8.62;100.00
16738;BME280;17906;47.684;10.806;2023-05-13T12:20:22;93223.44;;;8.69;100.00
16738;BME280;17906;47.684;10.806;2023-05-13T12:22:54;93215.06;;;8.82;100.00
16738;BME280;17906;47.684;10.806;2023-05-13T12:25:39;93212.50;;;8.76;100.00
16738;BME280;17906;47.684;10.806;2023-05-13T12:28:08;93209.44;;;8.72;100.00
16738;BME280;17906;47.684;10.806;2023-05-13T12:30:35;93205.34;;;8.69;100.00
16738;BME280;17906;47.684;10.806;2023-05-13T12:33:02;93215.31;;;8.81;100.00
16738;BME280;17906;47.684;10.806;2023-05-13T12:35:30;93208.84;;;8.82;100.00
16738;BME280;17906;47.684;10.806;2023-05-13T12:38:02;93212.63;;;8.69;100.00
16738;BME280;17906;47.684;10.806;2023-05-13T12:40:29;93206.44;;;8.45;100.00
16738;BME280;17906;47.684;10.806;2023-05-13T12:42:57;93208.53;;;8.43;100.00
16738;BME280;17906;47.684;10.806;2023-05-13T12:45:26;93213.03;;;8.26;100.00
16738;BME280;17906;47.684;10.806;2023-05-13T12:47:53;93214.31;;;8.35;100.00
16738;BME280;17906;47.684;10.806;2023-05-13T12:50:20;93215.81;;;8.31;100.00
16738;BME280;17906;47.684;10.806;2023-05-13T12:52:47;93219.81;;;8.40;100.00
16738;BME280;17906;47.684;10.806;2023-05-13T12:55:15;93216.88;;;8.41;100.00